<?xml version="1.0" encoding="UTF-8"?>
<gpx xmlns="http://www.topografix.com/GPX/1/1" xmlns:xsi="http://www.w3.org/2001/XMLSchema-instance" version="1.1" xsi:schemaLocation="http://www.topografix.com/GPX/1/1 http://www.topografix.com/GPX/1/1/gpx.xsd">
  <metadata>
    <name>Dorney Triathlon - Aquabike Sprint</name>
  </metadata>
  <trk>
    <name>Dorney Triathlon - Aquabike Sprint</name>
    <trkseg>
      <trkpt lat="51.487296" lon="-0.652475">
        <ele>20.896922</ele>
        <time>2024-07-13T13:15:00.000Z</time>
      </trkpt>
      <trkpt lat="51.487217" lon="-0.652906">
        <ele>20.896917</ele>
        <time>2024-07-13T13:15:03.000Z</time>
      </trkpt>
      <trkpt lat="51.487216" lon="-0.653059">
        <ele>20.896927</ele>
        <time>2024-07-13T13:15:04.000Z</time>
      </trkpt>
      <trkpt lat="51.487236" lon="-0.653335">
        <ele>20.896918</ele>
        <time>2024-07-13T13:15:06.000Z</time>
      </trkpt>
      <trkpt lat="51.48737" lon="-0.653403">
        <ele>20.896923</ele>
        <time>2024-07-13T13:15:08.000Z</time>
      </trkpt>
      <trkpt lat="51.487943" lon="-0.653722">
        <ele>20.864036</ele>
        <time>2024-07-13T13:15:15.000Z</time>
      </trkpt>
      <trkpt lat="51.48799" lon="-0.653756">
        <ele>20.859667</ele>
        <time>2024-07-13T13:15:16.000Z</time>
      </trkpt>
      <trkpt lat="51.488152" lon="-0.654039">
        <ele>20.840935</ele>
        <time>2024-07-13T13:15:19.000Z</time>
      </trkpt>
      <trkpt lat="51.488339" lon="-0.654582">
        <ele>20.808956</ele>
        <time>2024-07-13T13:15:23.000Z</time>
      </trkpt>
      <trkpt lat="51.488559" lon="-0.655167">
        <ele>20.774737</ele>
        <time>2024-07-13T13:15:28.000Z</time>
      </trkpt>
      <trkpt lat="51.489498" lon="-0.657114">
        <ele>20.616353</ele>
        <time>2024-07-13T13:15:45.000Z</time>
      </trkpt>
      <trkpt lat="51.490986" lon="-0.660258">
        <ele>20.393884</ele>
        <time>2024-07-13T13:16:12.000Z</time>
      </trkpt>
      <trkpt lat="51.491025" lon="-0.660331">
        <ele>20.391817</ele>
        <time>2024-07-13T13:16:13.000Z</time>
      </trkpt>
      <trkpt lat="51.491118" lon="-0.660531">
        <ele>20.386451</ele>
        <time>2024-07-13T13:16:15.000Z</time>
      </trkpt>
      <trkpt lat="51.491306" lon="-0.660802">
        <ele>20.377961</ele>
        <time>2024-07-13T13:16:18.000Z</time>
      </trkpt>
      <trkpt lat="51.49157" lon="-0.661338">
        <ele>20.363639</ele>
        <time>2024-07-13T13:16:23.000Z</time>
      </trkpt>
      <trkpt lat="51.49167" lon="-0.661659">
        <ele>20.355961</ele>
        <time>2024-07-13T13:16:25.000Z</time>
      </trkpt>
      <trkpt lat="51.493683" lon="-0.665929">
        <ele>20.570174</ele>
        <time>2024-07-13T13:17:02.000Z</time>
      </trkpt>
      <trkpt lat="51.493907" lon="-0.66631">
        <ele>20.612807</ele>
        <time>2024-07-13T13:17:06.000Z</time>
      </trkpt>
      <trkpt lat="51.494086" lon="-0.666633">
        <ele>20.648903</ele>
        <time>2024-07-13T13:17:09.000Z</time>
      </trkpt>
      <trkpt lat="51.494265" lon="-0.667008">
        <ele>20.688958</ele>
        <time>2024-07-13T13:17:12.000Z</time>
      </trkpt>
      <trkpt lat="51.494531" lon="-0.667676">
        <ele>20.764366</ele>
        <time>2024-07-13T13:17:17.000Z</time>
      </trkpt>
      <trkpt lat="51.495393" lon="-0.669515">
        <ele>20.961623</ele>
        <time>2024-07-13T13:17:33.000Z</time>
      </trkpt>
      <trkpt lat="51.495435" lon="-0.669615">
        <ele>20.964476</ele>
        <time>2024-07-13T13:17:34.000Z</time>
      </trkpt>
      <trkpt lat="51.495629" lon="-0.670022">
        <ele>20.976198</ele>
        <time>2024-07-13T13:17:38.000Z</time>
      </trkpt>
      <trkpt lat="51.495857" lon="-0.670475">
        <ele>20.989404</ele>
        <time>2024-07-13T13:17:42.000Z</time>
      </trkpt>
      <trkpt lat="51.498344" lon="-0.675745">
        <ele>21.157056</ele>
        <time>2024-07-13T13:18:28.000Z</time>
      </trkpt>
      <trkpt lat="51.498783" lon="-0.676472">
        <ele>21.269021</ele>
        <time>2024-07-13T13:18:35.000Z</time>
      </trkpt>
      <trkpt lat="51.499005" lon="-0.676994">
        <ele>21.397089</ele>
        <time>2024-07-13T13:18:39.000Z</time>
      </trkpt>
      <trkpt lat="51.499304" lon="-0.677579">
        <ele>21.549824</ele>
        <time>2024-07-13T13:18:44.000Z</time>
      </trkpt>
      <trkpt lat="51.499572" lon="-0.67809">
        <ele>21.683669</ele>
        <time>2024-07-13T13:18:49.000Z</time>
      </trkpt>
      <trkpt lat="51.499394" lon="-0.678253">
        <ele>21.749878</ele>
        <time>2024-07-13T13:18:51.000Z</time>
      </trkpt>
      <trkpt lat="51.499205" lon="-0.67837">
        <ele>21.805204</ele>
        <time>2024-07-13T13:18:53.000Z</time>
      </trkpt>
      <trkpt lat="51.498914" lon="-0.678495">
        <ele>21.879147</ele>
        <time>2024-07-13T13:18:56.000Z</time>
      </trkpt>
      <trkpt lat="51.498763" lon="-0.678537">
        <ele>21.916383</ele>
        <time>2024-07-13T13:18:58.000Z</time>
      </trkpt>
      <trkpt lat="51.498501" lon="-0.67853">
        <ele>21.986535</ele>
        <time>2024-07-13T13:19:01.000Z</time>
      </trkpt>
      <trkpt lat="51.498258" lon="-0.678528">
        <ele>22.048758</ele>
        <time>2024-07-13T13:19:04.000Z</time>
      </trkpt>
      <trkpt lat="51.498012" lon="-0.678534">
        <ele>22.110456</ele>
        <time>2024-07-13T13:19:07.000Z</time>
      </trkpt>
      <trkpt lat="51.498005" lon="-0.678535">
        <ele>22.114046</ele>
        <time>2024-07-13T13:19:07.000Z</time>
      </trkpt>
      <trkpt lat="51.497908" lon="-0.678507">
        <ele>22.135957</ele>
        <time>2024-07-13T13:19:08.000Z</time>
      </trkpt>
      <trkpt lat="51.497432" lon="-0.678364">
        <ele>22.187966</ele>
        <time>2024-07-13T13:19:13.000Z</time>
      </trkpt>
      <trkpt lat="51.497413" lon="-0.678365">
        <ele>22.185102</ele>
        <time>2024-07-13T13:19:13.000Z</time>
      </trkpt>
      <trkpt lat="51.497187" lon="-0.678198">
        <ele>22.137026</ele>
        <time>2024-07-13T13:19:16.000Z</time>
      </trkpt>
      <trkpt lat="51.496838" lon="-0.677668">
        <ele>22.048807</ele>
        <time>2024-07-13T13:19:21.000Z</time>
      </trkpt>
      <trkpt lat="51.496518" lon="-0.677183">
        <ele>21.967005</ele>
        <time>2024-07-13T13:19:26.000Z</time>
      </trkpt>
      <trkpt lat="51.496383" lon="-0.677053">
        <ele>21.936118</ele>
        <time>2024-07-13T13:19:28.000Z</time>
      </trkpt>
      <trkpt lat="51.496325" lon="-0.677021">
        <ele>21.927821</ele>
        <time>2024-07-13T13:19:29.000Z</time>
      </trkpt>
      <trkpt lat="51.496293" lon="-0.677015">
        <ele>21.919894</ele>
        <time>2024-07-13T13:19:29.000Z</time>
      </trkpt>
      <trkpt lat="51.495764" lon="-0.676749">
        <ele>21.851518</ele>
        <time>2024-07-13T13:19:35.000Z</time>
      </trkpt>
      <trkpt lat="51.495288" lon="-0.676192">
        <ele>21.800215</ele>
        <time>2024-07-13T13:19:42.000Z</time>
      </trkpt>
      <trkpt lat="51.494899" lon="-0.675508">
        <ele>21.748455</ele>
        <time>2024-07-13T13:19:48.000Z</time>
      </trkpt>
      <trkpt lat="51.494429" lon="-0.674423">
        <ele>22.025616</ele>
        <time>2024-07-13T13:19:57.000Z</time>
      </trkpt>
      <trkpt lat="51.494125" lon="-0.673815">
        <ele>22.29377</ele>
        <time>2024-07-13T13:20:02.000Z</time>
      </trkpt>
      <trkpt lat="51.492703" lon="-0.671561">
        <ele>23.464271</ele>
        <time>2024-07-13T13:20:24.000Z</time>
      </trkpt>
      <trkpt lat="51.491936" lon="-0.67052">
        <ele>23.69799</ele>
        <time>2024-07-13T13:20:35.000Z</time>
      </trkpt>
      <trkpt lat="51.490073" lon="-0.668275">
        <ele>22.949764</ele>
        <time>2024-07-13T13:21:01.000Z</time>
      </trkpt>
      <trkpt lat="51.489781" lon="-0.66776">
        <ele>22.768201</ele>
        <time>2024-07-13T13:21:06.000Z</time>
      </trkpt>
      <trkpt lat="51.48911" lon="-0.665738">
        <ele>22.31725</ele>
        <time>2024-07-13T13:21:22.000Z</time>
      </trkpt>
      <trkpt lat="51.48885" lon="-0.663829">
        <ele>22.000082</ele>
        <time>2024-07-13T13:21:36.000Z</time>
      </trkpt>
      <trkpt lat="51.488853" lon="-0.66334">
        <ele>21.926876</ele>
        <time>2024-07-13T13:21:39.000Z</time>
      </trkpt>
      <trkpt lat="51.488967" lon="-0.662345">
        <ele>21.773796</ele>
        <time>2024-07-13T13:21:46.000Z</time>
      </trkpt>
      <trkpt lat="51.488974" lon="-0.662064">
        <ele>21.73012</ele>
        <time>2024-07-13T13:21:48.000Z</time>
      </trkpt>
      <trkpt lat="51.488972" lon="-0.66199">
        <ele>21.721117</ele>
        <time>2024-07-13T13:21:49.000Z</time>
      </trkpt>
      <trkpt lat="51.488956" lon="-0.661276">
        <ele>21.658723</ele>
        <time>2024-07-13T13:21:54.000Z</time>
      </trkpt>
      <trkpt lat="51.488949" lon="-0.66129">
        <ele>21.658728</ele>
        <time>2024-07-13T13:21:54.000Z</time>
      </trkpt>
      <trkpt lat="51.488702" lon="-0.660426">
        <ele>21.623504</ele>
        <time>2024-07-13T13:22:01.000Z</time>
      </trkpt>
      <trkpt lat="51.488649" lon="-0.660027">
        <ele>21.608133</ele>
        <time>2024-07-13T13:22:04.000Z</time>
      </trkpt>
      <trkpt lat="51.488637" lon="-0.659848">
        <ele>21.601047</ele>
        <time>2024-07-13T13:22:05.000Z</time>
      </trkpt>
      <trkpt lat="51.488395" lon="-0.658916">
        <ele>21.565934</ele>
        <time>2024-07-13T13:22:12.000Z</time>
      </trkpt>
      <trkpt lat="51.488381" lon="-0.65836">
        <ele>21.570314</ele>
        <time>2024-07-13T13:22:16.000Z</time>
      </trkpt>
      <trkpt lat="51.488499" lon="-0.658021">
        <ele>21.573355</ele>
        <time>2024-07-13T13:22:19.000Z</time>
      </trkpt>
      <trkpt lat="51.488521" lon="-0.65768">
        <ele>21.576062</ele>
        <time>2024-07-13T13:22:21.000Z</time>
      </trkpt>
      <trkpt lat="51.48849" lon="-0.657476">
        <ele>21.577639</ele>
        <time>2024-07-13T13:22:22.000Z</time>
      </trkpt>
      <trkpt lat="51.488046" lon="-0.656665">
        <ele>21.586025</ele>
        <time>2024-07-13T13:22:29.000Z</time>
      </trkpt>
      <trkpt lat="51.487864" lon="-0.655681">
        <ele>21.504703</ele>
        <time>2024-07-13T13:22:36.000Z</time>
      </trkpt>
      <trkpt lat="51.487476" lon="-0.654493">
        <ele>21.358055</ele>
        <time>2024-07-13T13:22:45.000Z</time>
      </trkpt>
      <trkpt lat="51.48725" lon="-0.653529">
        <ele>21.236142</ele>
        <time>2024-07-13T13:22:52.000Z</time>
      </trkpt>
      <trkpt lat="51.487228" lon="-0.65334">
        <ele>21.20568</ele>
        <time>2024-07-13T13:22:53.000Z</time>
      </trkpt>
      <trkpt lat="51.487381" lon="-0.653411">
        <ele>21.168622</ele>
        <time>2024-07-13T13:22:55.000Z</time>
      </trkpt>
      <trkpt lat="51.487952" lon="-0.65371">
        <ele>21.024647</ele>
        <time>2024-07-13T13:23:02.000Z</time>
      </trkpt>
      <trkpt lat="51.488" lon="-0.653762">
        <ele>21.011741</ele>
        <time>2024-07-13T13:23:03.000Z</time>
      </trkpt>
      <trkpt lat="51.488146" lon="-0.654037">
        <ele>20.956416</ele>
        <time>2024-07-13T13:23:06.000Z</time>
      </trkpt>
      <trkpt lat="51.488339" lon="-0.65459">
        <ele>20.861836</ele>
        <time>2024-07-13T13:23:10.000Z</time>
      </trkpt>
      <trkpt lat="51.488558" lon="-0.655172">
        <ele>20.799774</ele>
        <time>2024-07-13T13:23:15.000Z</time>
      </trkpt>
      <trkpt lat="51.489507" lon="-0.65711">
        <ele>20.61229</ele>
        <time>2024-07-13T13:23:32.000Z</time>
      </trkpt>
      <trkpt lat="51.490984" lon="-0.660253">
        <ele>20.404119</ele>
        <time>2024-07-13T13:23:59.000Z</time>
      </trkpt>
      <trkpt lat="51.491032" lon="-0.660327">
        <ele>20.399406</ele>
        <time>2024-07-13T13:24:00.000Z</time>
      </trkpt>
      <trkpt lat="51.491133" lon="-0.660516">
        <ele>20.387174</ele>
        <time>2024-07-13T13:24:02.000Z</time>
      </trkpt>
      <trkpt lat="51.491321" lon="-0.660794">
        <ele>20.367862</ele>
        <time>2024-07-13T13:24:05.000Z</time>
      </trkpt>
      <trkpt lat="51.491567" lon="-0.66134">
        <ele>20.335238</ele>
        <time>2024-07-13T13:24:10.000Z</time>
      </trkpt>
      <trkpt lat="51.49168" lon="-0.66167">
        <ele>20.323922</ele>
        <time>2024-07-13T13:24:13.000Z</time>
      </trkpt>
      <trkpt lat="51.493691" lon="-0.665928">
        <ele>20.549354</ele>
        <time>2024-07-13T13:24:50.000Z</time>
      </trkpt>
      <trkpt lat="51.493911" lon="-0.666309">
        <ele>20.587673</ele>
        <time>2024-07-13T13:24:54.000Z</time>
      </trkpt>
      <trkpt lat="51.494085" lon="-0.666632">
        <ele>20.635489</ele>
        <time>2024-07-13T13:24:57.000Z</time>
      </trkpt>
      <trkpt lat="51.494267" lon="-0.666997">
        <ele>20.687477</ele>
        <time>2024-07-13T13:25:00.000Z</time>
      </trkpt>
      <trkpt lat="51.494535" lon="-0.667685">
        <ele>20.775199</ele>
        <time>2024-07-13T13:25:06.000Z</time>
      </trkpt>
      <trkpt lat="51.495397" lon="-0.669518">
        <ele>20.94091</ele>
        <time>2024-07-13T13:25:22.000Z</time>
      </trkpt>
      <trkpt lat="51.49545" lon="-0.669602">
        <ele>20.946219</ele>
        <time>2024-07-13T13:25:23.000Z</time>
      </trkpt>
      <trkpt lat="51.495632" lon="-0.670014">
        <ele>20.968035</ele>
        <time>2024-07-13T13:25:26.000Z</time>
      </trkpt>
      <trkpt lat="51.495859" lon="-0.670488">
        <ele>20.99265</ele>
        <time>2024-07-13T13:25:30.000Z</time>
      </trkpt>
      <trkpt lat="51.498339" lon="-0.675748">
        <ele>21.171958</ele>
        <time>2024-07-13T13:26:16.000Z</time>
      </trkpt>
      <trkpt lat="51.498782" lon="-0.676467">
        <ele>21.315293</ele>
        <time>2024-07-13T13:26:23.000Z</time>
      </trkpt>
      <trkpt lat="51.499011" lon="-0.676985">
        <ele>21.406254</ele>
        <time>2024-07-13T13:26:27.000Z</time>
      </trkpt>
      <trkpt lat="51.49931" lon="-0.677572">
        <ele>21.514733</ele>
        <time>2024-07-13T13:26:32.000Z</time>
      </trkpt>
      <trkpt lat="51.499573" lon="-0.6781">
        <ele>21.657421</ele>
        <time>2024-07-13T13:26:37.000Z</time>
      </trkpt>
      <trkpt lat="51.499394" lon="-0.678259">
        <ele>21.729216</ele>
        <time>2024-07-13T13:26:39.000Z</time>
      </trkpt>
      <trkpt lat="51.499189" lon="-0.678373">
        <ele>21.802193</ele>
        <time>2024-07-13T13:26:41.000Z</time>
      </trkpt>
      <trkpt lat="51.498906" lon="-0.678482">
        <ele>21.903124</ele>
        <time>2024-07-13T13:26:44.000Z</time>
      </trkpt>
      <trkpt lat="51.498778" lon="-0.678521">
        <ele>21.953968</ele>
        <time>2024-07-13T13:26:45.000Z</time>
      </trkpt>
      <trkpt lat="51.498491" lon="-0.678531">
        <ele>22.04974</ele>
        <time>2024-07-13T13:26:48.000Z</time>
      </trkpt>
      <trkpt lat="51.498258" lon="-0.678534">
        <ele>22.134674</ele>
        <time>2024-07-13T13:26:51.000Z</time>
      </trkpt>
      <trkpt lat="51.498011" lon="-0.67854">
        <ele>22.134447</ele>
        <time>2024-07-13T13:26:54.000Z</time>
      </trkpt>
      <trkpt lat="51.498004" lon="-0.678535">
        <ele>22.133504</ele>
        <time>2024-07-13T13:26:54.000Z</time>
      </trkpt>
      <trkpt lat="51.497909" lon="-0.67852">
        <ele>22.1278</ele>
        <time>2024-07-13T13:26:55.000Z</time>
      </trkpt>
      <trkpt lat="51.497435" lon="-0.678357">
        <ele>22.094812</ele>
        <time>2024-07-13T13:27:00.000Z</time>
      </trkpt>
      <trkpt lat="51.49741" lon="-0.678358">
        <ele>22.093796</ele>
        <time>2024-07-13T13:27:00.000Z</time>
      </trkpt>
      <trkpt lat="51.497187" lon="-0.678189">
        <ele>22.076603</ele>
        <time>2024-07-13T13:27:03.000Z</time>
      </trkpt>
      <trkpt lat="51.496839" lon="-0.677666">
        <ele>22.045052</ele>
        <time>2024-07-13T13:27:08.000Z</time>
      </trkpt>
      <trkpt lat="51.496515" lon="-0.677185">
        <ele>21.994013</ele>
        <time>2024-07-13T13:27:13.000Z</time>
      </trkpt>
      <trkpt lat="51.496383" lon="-0.677046">
        <ele>21.963381</ele>
        <time>2024-07-13T13:27:15.000Z</time>
      </trkpt>
      <trkpt lat="51.496334" lon="-0.677033">
        <ele>21.955123</ele>
        <time>2024-07-13T13:27:16.000Z</time>
      </trkpt>
      <trkpt lat="51.49629" lon="-0.677009">
        <ele>21.947268</ele>
        <time>2024-07-13T13:27:17.000Z</time>
      </trkpt>
      <trkpt lat="51.495753" lon="-0.676744">
        <ele>21.844016</ele>
        <time>2024-07-13T13:27:23.000Z</time>
      </trkpt>
      <trkpt lat="51.495297" lon="-0.676187">
        <ele>21.737441</ele>
        <time>2024-07-13T13:27:29.000Z</time>
      </trkpt>
      <trkpt lat="51.494897" lon="-0.675518">
        <ele>21.803072</ele>
        <time>2024-07-13T13:27:35.000Z</time>
      </trkpt>
      <trkpt lat="51.494426" lon="-0.674417">
        <ele>22.054484</ele>
        <time>2024-07-13T13:27:44.000Z</time>
      </trkpt>
      <trkpt lat="51.494114" lon="-0.673809">
        <ele>22.203627</ele>
        <time>2024-07-13T13:27:49.000Z</time>
      </trkpt>
      <trkpt lat="51.492701" lon="-0.671572">
        <ele>23.553242</ele>
        <time>2024-07-13T13:28:11.000Z</time>
      </trkpt>
      <trkpt lat="51.491935" lon="-0.670514">
        <ele>23.608107</ele>
        <time>2024-07-13T13:28:22.000Z</time>
      </trkpt>
      <trkpt lat="51.490071" lon="-0.66827">
        <ele>22.921874</ele>
        <time>2024-07-13T13:28:48.000Z</time>
      </trkpt>
      <trkpt lat="51.489777" lon="-0.667764">
        <ele>22.759053</ele>
        <time>2024-07-13T13:28:53.000Z</time>
      </trkpt>
      <trkpt lat="51.489117" lon="-0.665727">
        <ele>22.313531</ele>
        <time>2024-07-13T13:29:09.000Z</time>
      </trkpt>
      <trkpt lat="51.488861" lon="-0.663829">
        <ele>22.000963</ele>
        <time>2024-07-13T13:29:22.000Z</time>
      </trkpt>
      <trkpt lat="51.48885" lon="-0.66335">
        <ele>21.924209</ele>
        <time>2024-07-13T13:29:25.000Z</time>
      </trkpt>
      <trkpt lat="51.488975" lon="-0.662357">
        <ele>21.785309</ele>
        <time>2024-07-13T13:29:32.000Z</time>
      </trkpt>
      <trkpt lat="51.488962" lon="-0.66206">
        <ele>21.757913</ele>
        <time>2024-07-13T13:29:34.000Z</time>
      </trkpt>
      <trkpt lat="51.488965" lon="-0.661997">
        <ele>21.752252</ele>
        <time>2024-07-13T13:29:34.000Z</time>
      </trkpt>
      <trkpt lat="51.488946" lon="-0.661285">
        <ele>21.685023</ele>
        <time>2024-07-13T13:29:39.000Z</time>
      </trkpt>
      <trkpt lat="51.488955" lon="-0.66128">
        <ele>21.685033</ele>
        <time>2024-07-13T13:29:39.000Z</time>
      </trkpt>
      <trkpt lat="51.488703" lon="-0.660438">
        <ele>21.596414</ele>
        <time>2024-07-13T13:29:45.000Z</time>
      </trkpt>
      <trkpt lat="51.488653" lon="-0.660024">
        <ele>21.557782</ele>
        <time>2024-07-13T13:29:48.000Z</time>
      </trkpt>
      <trkpt lat="51.488631" lon="-0.659837">
        <ele>21.546761</ele>
        <time>2024-07-13T13:29:49.000Z</time>
      </trkpt>
      <trkpt lat="51.488404" lon="-0.658913">
        <ele>21.56561</ele>
        <time>2024-07-13T13:29:56.000Z</time>
      </trkpt>
      <trkpt lat="51.488372" lon="-0.65836">
        <ele>21.576188</ele>
        <time>2024-07-13T13:30:00.000Z</time>
      </trkpt>
      <trkpt lat="51.488496" lon="-0.658014">
        <ele>21.583511</ele>
        <time>2024-07-13T13:30:03.000Z</time>
      </trkpt>
      <trkpt lat="51.488532" lon="-0.657666">
        <ele>21.590054</ele>
        <time>2024-07-13T13:30:05.000Z</time>
      </trkpt>
      <trkpt lat="51.488484" lon="-0.657487">
        <ele>21.593861</ele>
        <time>2024-07-13T13:30:06.000Z</time>
      </trkpt>
      <trkpt lat="51.488047" lon="-0.656667">
        <ele>21.553298</ele>
        <time>2024-07-13T13:30:13.000Z</time>
      </trkpt>
      <trkpt lat="51.487864" lon="-0.655697">
        <ele>21.489821</ele>
        <time>2024-07-13T13:30:20.000Z</time>
      </trkpt>
      <trkpt lat="51.487478" lon="-0.654488">
        <ele>21.385312</ele>
        <time>2024-07-13T13:30:29.000Z</time>
      </trkpt>
      <trkpt lat="51.48726" lon="-0.65354">
        <ele>21.226103</ele>
        <time>2024-07-13T13:30:36.000Z</time>
      </trkpt>
      <trkpt lat="51.487224" lon="-0.653339">
        <ele>21.194489</ele>
        <time>2024-07-13T13:30:37.000Z</time>
      </trkpt>
      <trkpt lat="51.487373" lon="-0.653401">
        <ele>21.155978</ele>
        <time>2024-07-13T13:30:39.000Z</time>
      </trkpt>
      <trkpt lat="51.48794" lon="-0.653709">
        <ele>21.006416</ele>
        <time>2024-07-13T13:30:46.000Z</time>
      </trkpt>
      <trkpt lat="51.487992" lon="-0.653765">
        <ele>20.992998</ele>
        <time>2024-07-13T13:30:47.000Z</time>
      </trkpt>
      <trkpt lat="51.488152" lon="-0.654048">
        <ele>20.949385</ele>
        <time>2024-07-13T13:30:50.000Z</time>
      </trkpt>
      <trkpt lat="51.488342" lon="-0.654588">
        <ele>20.887778</ele>
        <time>2024-07-13T13:30:54.000Z</time>
      </trkpt>
      <trkpt lat="51.488571" lon="-0.655168">
        <ele>20.821947</ele>
        <time>2024-07-13T13:30:59.000Z</time>
      </trkpt>
      <trkpt lat="51.489502" lon="-0.657125">
        <ele>20.621014</ele>
        <time>2024-07-13T13:31:16.000Z</time>
      </trkpt>
      <trkpt lat="51.490989" lon="-0.660248">
        <ele>20.389685</ele>
        <time>2024-07-13T13:31:43.000Z</time>
      </trkpt>
      <trkpt lat="51.491017" lon="-0.66033">
        <ele>20.384226</ele>
        <time>2024-07-13T13:31:44.000Z</time>
      </trkpt>
      <trkpt lat="51.491121" lon="-0.660524">
        <ele>20.370033</ele>
        <time>2024-07-13T13:31:46.000Z</time>
      </trkpt>
      <trkpt lat="51.491322" lon="-0.660791">
        <ele>20.350291</ele>
        <time>2024-07-13T13:31:49.000Z</time>
      </trkpt>
      <trkpt lat="51.491565" lon="-0.661331">
        <ele>20.35433</ele>
        <time>2024-07-13T13:31:54.000Z</time>
      </trkpt>
      <trkpt lat="51.491674" lon="-0.661668">
        <ele>20.356502</ele>
        <time>2024-07-13T13:31:57.000Z</time>
      </trkpt>
      <trkpt lat="51.49369" lon="-0.665939">
        <ele>20.556682</ele>
        <time>2024-07-13T13:32:34.000Z</time>
      </trkpt>
      <trkpt lat="51.493909" lon="-0.666299">
        <ele>20.60861</ele>
        <time>2024-07-13T13:32:37.000Z</time>
      </trkpt>
      <trkpt lat="51.494091" lon="-0.666628">
        <ele>20.65258</ele>
        <time>2024-07-13T13:32:40.000Z</time>
      </trkpt>
      <trkpt lat="51.494259" lon="-0.666999">
        <ele>20.700386</ele>
        <time>2024-07-13T13:32:43.000Z</time>
      </trkpt>
      <trkpt lat="51.494536" lon="-0.667682">
        <ele>20.781031</ele>
        <time>2024-07-13T13:32:49.000Z</time>
      </trkpt>
      <trkpt lat="51.495393" lon="-0.669511">
        <ele>20.947929</ele>
        <time>2024-07-13T13:33:05.000Z</time>
      </trkpt>
      <trkpt lat="51.495449" lon="-0.669607">
        <ele>20.957011</ele>
        <time>2024-07-13T13:33:06.000Z</time>
      </trkpt>
      <trkpt lat="51.495635" lon="-0.670018">
        <ele>20.991508</ele>
        <time>2024-07-13T13:33:10.000Z</time>
      </trkpt>
      <trkpt lat="51.495858" lon="-0.670475">
        <ele>21.00026</ele>
        <time>2024-07-13T13:33:14.000Z</time>
      </trkpt>
      <trkpt lat="51.498353" lon="-0.67574">
        <ele>21.193076</ele>
        <time>2024-07-13T13:34:00.000Z</time>
      </trkpt>
      <trkpt lat="51.498771" lon="-0.67648">
        <ele>21.272328</ele>
        <time>2024-07-13T13:34:07.000Z</time>
      </trkpt>
      <trkpt lat="51.499021" lon="-0.67698">
        <ele>21.354607</ele>
        <time>2024-07-13T13:34:11.000Z</time>
      </trkpt>
      <trkpt lat="51.499305" lon="-0.67758">
        <ele>21.527123</ele>
        <time>2024-07-13T13:34:16.000Z</time>
      </trkpt>
      <trkpt lat="51.499576" lon="-0.678096">
        <ele>21.678291</ele>
        <time>2024-07-13T13:34:21.000Z</time>
      </trkpt>
      <trkpt lat="51.49939" lon="-0.678255">
        <ele>21.753068</ele>
        <time>2024-07-13T13:34:23.000Z</time>
      </trkpt>
      <trkpt lat="51.499203" lon="-0.678373">
        <ele>21.829099</ele>
        <time>2024-07-13T13:34:25.000Z</time>
      </trkpt>
      <trkpt lat="51.498916" lon="-0.678484">
        <ele>21.934238</ele>
        <time>2024-07-13T13:34:28.000Z</time>
      </trkpt>
      <trkpt lat="51.498776" lon="-0.678538">
        <ele>21.969273</ele>
        <time>2024-07-13T13:34:30.000Z</time>
      </trkpt>
      <trkpt lat="51.498498" lon="-0.678531">
        <ele>22.002162</ele>
        <time>2024-07-13T13:34:33.000Z</time>
      </trkpt>
      <trkpt lat="51.498246" lon="-0.678538">
        <ele>22.031323</ele>
        <time>2024-07-13T13:34:36.000Z</time>
      </trkpt>
      <trkpt lat="51.49802" lon="-0.678537">
        <ele>22.060258</ele>
        <time>2024-07-13T13:34:39.000Z</time>
      </trkpt>
      <trkpt lat="51.498003" lon="-0.678541">
        <ele>22.061936</ele>
        <time>2024-07-13T13:34:39.000Z</time>
      </trkpt>
      <trkpt lat="51.497908" lon="-0.678512">
        <ele>22.072213</ele>
        <time>2024-07-13T13:34:40.000Z</time>
      </trkpt>
      <trkpt lat="51.497438" lon="-0.678365">
        <ele>22.131626</ele>
        <time>2024-07-13T13:34:45.000Z</time>
      </trkpt>
      <trkpt lat="51.497416" lon="-0.67835">
        <ele>22.133474</ele>
        <time>2024-07-13T13:34:45.000Z</time>
      </trkpt>
      <trkpt lat="51.49718" lon="-0.678186">
        <ele>22.164425</ele>
        <time>2024-07-13T13:34:48.000Z</time>
      </trkpt>
      <trkpt lat="51.496826" lon="-0.677673">
        <ele>22.091908</ele>
        <time>2024-07-13T13:34:53.000Z</time>
      </trkpt>
      <trkpt lat="51.49651" lon="-0.677194">
        <ele>21.992825</ele>
        <time>2024-07-13T13:34:58.000Z</time>
      </trkpt>
      <trkpt lat="51.496383" lon="-0.677048">
        <ele>21.955435</ele>
        <time>2024-07-13T13:35:00.000Z</time>
      </trkpt>
      <trkpt lat="51.496333" lon="-0.677028">
        <ele>21.945353</ele>
        <time>2024-07-13T13:35:01.000Z</time>
      </trkpt>
      <trkpt lat="51.496295" lon="-0.677014">
        <ele>21.935767</ele>
        <time>2024-07-13T13:35:01.000Z</time>
      </trkpt>
      <trkpt lat="51.495753" lon="-0.676731">
        <ele>21.809737</ele>
        <time>2024-07-13T13:35:07.000Z</time>
      </trkpt>
      <trkpt lat="51.495296" lon="-0.676193">
        <ele>21.796585</ele>
        <time>2024-07-13T13:35:13.000Z</time>
      </trkpt>
      <trkpt lat="51.494887" lon="-0.675503">
        <ele>21.834788</ele>
        <time>2024-07-13T13:35:20.000Z</time>
      </trkpt>
      <trkpt lat="51.49443" lon="-0.674415">
        <ele>21.895001</ele>
        <time>2024-07-13T13:35:29.000Z</time>
      </trkpt>
      <trkpt lat="51.494116" lon="-0.673815">
        <ele>22.234734</ele>
        <time>2024-07-13T13:35:34.000Z</time>
      </trkpt>
      <trkpt lat="51.492702" lon="-0.671572">
        <ele>23.398901</ele>
        <time>2024-07-13T13:35:56.000Z</time>
      </trkpt>
      <trkpt lat="51.491934" lon="-0.67052">
        <ele>23.775478</ele>
        <time>2024-07-13T13:36:07.000Z</time>
      </trkpt>
      <trkpt lat="51.490069" lon="-0.668276">
        <ele>22.944559</ele>
        <time>2024-07-13T13:36:33.000Z</time>
      </trkpt>
      <trkpt lat="51.489775" lon="-0.667752">
        <ele>22.784964</ele>
        <time>2024-07-13T13:36:38.000Z</time>
      </trkpt>
      <trkpt lat="51.48911" lon="-0.665728">
        <ele>22.312295</ele>
        <time>2024-07-13T13:36:54.000Z</time>
      </trkpt>
      <trkpt lat="51.488853" lon="-0.66383">
        <ele>22.001262</ele>
        <time>2024-07-13T13:37:07.000Z</time>
      </trkpt>
      <trkpt lat="51.488853" lon="-0.663353">
        <ele>21.930204</ele>
        <time>2024-07-13T13:37:10.000Z</time>
      </trkpt>
      <trkpt lat="51.488979" lon="-0.66235">
        <ele>21.7889</ele>
        <time>2024-07-13T13:37:17.000Z</time>
      </trkpt>
      <trkpt lat="51.48896" lon="-0.66205">
        <ele>21.748569</ele>
        <time>2024-07-13T13:37:19.000Z</time>
      </trkpt>
      <trkpt lat="51.488964" lon="-0.662003">
        <ele>21.74026</ele>
        <time>2024-07-13T13:37:19.000Z</time>
      </trkpt>
      <trkpt lat="51.488949" lon="-0.66129">
        <ele>21.641341</ele>
        <time>2024-07-13T13:37:24.000Z</time>
      </trkpt>
      <trkpt lat="51.488956" lon="-0.661286">
        <ele>21.641346</ele>
        <time>2024-07-13T13:37:24.000Z</time>
      </trkpt>
      <trkpt lat="51.488692" lon="-0.660427">
        <ele>21.578825</ele>
        <time>2024-07-13T13:37:31.000Z</time>
      </trkpt>
      <trkpt lat="51.488667" lon="-0.660034">
        <ele>21.581265</ele>
        <time>2024-07-13T13:37:34.000Z</time>
      </trkpt>
      <trkpt lat="51.488636" lon="-0.659836">
        <ele>21.582385</ele>
        <time>2024-07-13T13:37:35.000Z</time>
      </trkpt>
      <trkpt lat="51.488395" lon="-0.658921">
        <ele>21.588356</ele>
        <time>2024-07-13T13:37:42.000Z</time>
      </trkpt>
      <trkpt lat="51.488382" lon="-0.658345">
        <ele>21.591691</ele>
        <time>2024-07-13T13:37:46.000Z</time>
      </trkpt>
      <trkpt lat="51.488499" lon="-0.658013">
        <ele>21.590649</ele>
        <time>2024-07-13T13:37:49.000Z</time>
      </trkpt>
      <trkpt lat="51.488525" lon="-0.657668">
        <ele>21.583966</ele>
        <time>2024-07-13T13:37:51.000Z</time>
      </trkpt>
      <trkpt lat="51.488486" lon="-0.65749">
        <ele>21.580071</ele>
        <time>2024-07-13T13:37:52.000Z</time>
      </trkpt>
      <trkpt lat="51.488053" lon="-0.656667">
        <ele>21.559351</ele>
        <time>2024-07-13T13:37:59.000Z</time>
      </trkpt>
      <trkpt lat="51.487854" lon="-0.655695">
        <ele>21.539696</ele>
        <time>2024-07-13T13:38:06.000Z</time>
      </trkpt>
      <trkpt lat="51.487486" lon="-0.654497">
        <ele>21.363106</ele>
        <time>2024-07-13T13:38:15.000Z</time>
      </trkpt>
      <trkpt lat="51.48726" lon="-0.653535">
        <ele>21.218094</ele>
        <time>2024-07-13T13:38:22.000Z</time>
      </trkpt>
      <trkpt lat="51.487228" lon="-0.653329">
        <ele>21.189304</ele>
        <time>2024-07-13T13:38:23.000Z</time>
      </trkpt>
      <trkpt lat="51.48738" lon="-0.653399">
        <ele>21.154241</ele>
        <time>2024-07-13T13:38:25.000Z</time>
      </trkpt>
      <trkpt lat="51.487947" lon="-0.653716">
        <ele>21.028768</ele>
        <time>2024-07-13T13:38:32.000Z</time>
      </trkpt>
      <trkpt lat="51.487998" lon="-0.653768">
        <ele>21.017721</ele>
        <time>2024-07-13T13:38:33.000Z</time>
      </trkpt>
      <trkpt lat="51.488143" lon="-0.65404">
        <ele>20.970404</ele>
        <time>2024-07-13T13:38:35.000Z</time>
      </trkpt>
      <trkpt lat="51.488348" lon="-0.654597">
        <ele>20.889529</ele>
        <time>2024-07-13T13:38:39.000Z</time>
      </trkpt>
      <trkpt lat="51.488568" lon="-0.655172">
        <ele>20.803083</ele>
        <time>2024-07-13T13:38:44.000Z</time>
      </trkpt>
      <trkpt lat="51.489503" lon="-0.65712">
        <ele>20.615488</ele>
        <time>2024-07-13T13:39:01.000Z</time>
      </trkpt>
      <trkpt lat="51.490989" lon="-0.660254">
        <ele>20.398548</ele>
        <time>2024-07-13T13:39:28.000Z</time>
      </trkpt>
      <trkpt lat="51.491026" lon="-0.660336">
        <ele>20.396041</ele>
        <time>2024-07-13T13:39:29.000Z</time>
      </trkpt>
      <trkpt lat="51.491129" lon="-0.660525">
        <ele>20.389501</ele>
        <time>2024-07-13T13:39:31.000Z</time>
      </trkpt>
      <trkpt lat="51.49131" lon="-0.660786">
        <ele>20.379199</ele>
        <time>2024-07-13T13:39:34.000Z</time>
      </trkpt>
      <trkpt lat="51.491566" lon="-0.661337">
        <ele>20.361767</ele>
        <time>2024-07-13T13:39:39.000Z</time>
      </trkpt>
      <trkpt lat="51.491663" lon="-0.661669">
        <ele>20.352435</ele>
        <time>2024-07-13T13:39:42.000Z</time>
      </trkpt>
      <trkpt lat="51.493687" lon="-0.66593">
        <ele>20.569744</ele>
        <time>2024-07-13T13:40:19.000Z</time>
      </trkpt>
      <trkpt lat="51.493912" lon="-0.666302">
        <ele>20.610291</ele>
        <time>2024-07-13T13:40:23.000Z</time>
      </trkpt>
      <trkpt lat="51.494097" lon="-0.666635">
        <ele>20.644615</ele>
        <time>2024-07-13T13:40:26.000Z</time>
      </trkpt>
      <trkpt lat="51.494269" lon="-0.667005">
        <ele>20.68592</ele>
        <time>2024-07-13T13:40:29.000Z</time>
      </trkpt>
      <trkpt lat="51.494532" lon="-0.667689">
        <ele>20.763913</ele>
        <time>2024-07-13T13:40:35.000Z</time>
      </trkpt>
      <trkpt lat="51.495404" lon="-0.669508">
        <ele>20.958043</ele>
        <time>2024-07-13T13:40:51.000Z</time>
      </trkpt>
      <trkpt lat="51.495442" lon="-0.669616">
        <ele>20.961143</ele>
        <time>2024-07-13T13:40:52.000Z</time>
      </trkpt>
      <trkpt lat="51.495639" lon="-0.670019">
        <ele>20.97385</ele>
        <time>2024-07-13T13:40:56.000Z</time>
      </trkpt>
      <trkpt lat="51.495855" lon="-0.670475">
        <ele>20.988188</ele>
        <time>2024-07-13T13:41:00.000Z</time>
      </trkpt>
      <trkpt lat="51.498355" lon="-0.675732">
        <ele>21.150245</ele>
        <time>2024-07-13T13:41:46.000Z</time>
      </trkpt>
      <trkpt lat="51.498776" lon="-0.676475">
        <ele>21.278901</ele>
        <time>2024-07-13T13:41:53.000Z</time>
      </trkpt>
      <trkpt lat="51.499016" lon="-0.676991">
        <ele>21.402441</ele>
        <time>2024-07-13T13:41:57.000Z</time>
      </trkpt>
      <trkpt lat="51.499319" lon="-0.677584">
        <ele>21.549786</ele>
        <time>2024-07-13T13:42:02.000Z</time>
      </trkpt>
      <trkpt lat="51.499567" lon="-0.678091">
        <ele>21.678914</ele>
        <time>2024-07-13T13:42:06.000Z</time>
      </trkpt>
      <trkpt lat="51.499382" lon="-0.678254">
        <ele>21.740641</ele>
        <time>2024-07-13T13:42:08.000Z</time>
      </trkpt>
      <trkpt lat="51.499191" lon="-0.678379">
        <ele>21.79796</ele>
        <time>2024-07-13T13:42:10.000Z</time>
      </trkpt>
      <trkpt lat="51.498913" lon="-0.678478">
        <ele>21.877252</ele>
        <time>2024-07-13T13:42:13.000Z</time>
      </trkpt>
      <trkpt lat="51.49878" lon="-0.678529">
        <ele>21.917207</ele>
        <time>2024-07-13T13:42:15.000Z</time>
      </trkpt>
      <trkpt lat="51.498495" lon="-0.678524">
        <ele>21.992437</ele>
        <time>2024-07-13T13:42:18.000Z</time>
      </trkpt>
      <trkpt lat="51.49825" lon="-0.678529">
        <ele>22.059157</ele>
        <time>2024-07-13T13:42:21.000Z</time>
      </trkpt>
      <trkpt lat="51.49801" lon="-0.678542">
        <ele>22.125318</ele>
        <time>2024-07-13T13:42:24.000Z</time>
      </trkpt>
      <trkpt lat="51.498007" lon="-0.678531">
        <ele>22.12917</ele>
        <time>2024-07-13T13:42:24.000Z</time>
      </trkpt>
      <trkpt lat="51.497924" lon="-0.678507">
        <ele>22.152662</ele>
        <time>2024-07-13T13:42:25.000Z</time>
      </trkpt>
      <trkpt lat="51.497439" lon="-0.678369">
        <ele>22.173425</ele>
        <time>2024-07-13T13:42:30.000Z</time>
      </trkpt>
      <trkpt lat="51.497415" lon="-0.678362">
        <ele>22.170735</ele>
        <time>2024-07-13T13:42:30.000Z</time>
      </trkpt>
      <trkpt lat="51.497171" lon="-0.678191">
        <ele>22.125604</ele>
        <time>2024-07-13T13:42:33.000Z</time>
      </trkpt>
      <trkpt lat="51.49683" lon="-0.677662">
        <ele>22.04277</ele>
        <time>2024-07-13T13:42:38.000Z</time>
      </trkpt>
      <trkpt lat="51.496518" lon="-0.67718">
        <ele>21.965951</ele>
        <time>2024-07-13T13:42:43.000Z</time>
      </trkpt>
      <trkpt lat="51.496375" lon="-0.677055">
        <ele>21.936956</ele>
        <time>2024-07-13T13:42:45.000Z</time>
      </trkpt>
      <trkpt lat="51.496328" lon="-0.677032">
        <ele>21.929166</ele>
        <time>2024-07-13T13:42:46.000Z</time>
      </trkpt>
      <trkpt lat="51.496282" lon="-0.677009">
        <ele>21.921714</ele>
        <time>2024-07-13T13:42:47.000Z</time>
      </trkpt>
      <trkpt lat="51.495754" lon="-0.67674">
        <ele>21.854842</ele>
        <time>2024-07-13T13:42:53.000Z</time>
      </trkpt>
      <trkpt lat="51.495303" lon="-0.676186">
        <ele>21.793144</ele>
        <time>2024-07-13T13:42:59.000Z</time>
      </trkpt>
      <trkpt lat="51.494895" lon="-0.675514">
        <ele>21.730892</ele>
        <time>2024-07-13T13:43:05.000Z</time>
      </trkpt>
      <trkpt lat="51.494425" lon="-0.674407">
        <ele>22.040658</ele>
        <time>2024-07-13T13:43:14.000Z</time>
      </trkpt>
      <trkpt lat="51.49412" lon="-0.673815">
        <ele>22.293828</ele>
        <time>2024-07-13T13:43:19.000Z</time>
      </trkpt>
      <trkpt lat="51.492689" lon="-0.671569">
        <ele>23.484949</ele>
        <time>2024-07-13T13:43:41.000Z</time>
      </trkpt>
      <trkpt lat="51.491947" lon="-0.670509">
        <ele>23.674163</ele>
        <time>2024-07-13T13:43:52.000Z</time>
      </trkpt>
      <trkpt lat="51.490061" lon="-0.668273">
        <ele>22.947299</ele>
        <time>2024-07-13T13:44:18.000Z</time>
      </trkpt>
      <trkpt lat="51.489771" lon="-0.667754">
        <ele>22.762894</ele>
        <time>2024-07-13T13:44:23.000Z</time>
      </trkpt>
      <trkpt lat="51.489101" lon="-0.665725">
        <ele>22.31837</ele>
        <time>2024-07-13T13:44:39.000Z</time>
      </trkpt>
      <trkpt lat="51.488853" lon="-0.663844">
        <ele>22.000514</ele>
        <time>2024-07-13T13:44:52.000Z</time>
      </trkpt>
      <trkpt lat="51.488853" lon="-0.663341">
        <ele>21.926618</ele>
        <time>2024-07-13T13:44:55.000Z</time>
      </trkpt>
      <trkpt lat="51.488982" lon="-0.662349">
        <ele>21.772077</ele>
        <time>2024-07-13T13:45:02.000Z</time>
      </trkpt>
      <trkpt lat="51.488962" lon="-0.662053">
        <ele>21.727982</ele>
        <time>2024-07-13T13:45:04.000Z</time>
      </trkpt>
      <trkpt lat="51.488972" lon="-0.662002">
        <ele>21.718894</ele>
        <time>2024-07-13T13:45:04.000Z</time>
      </trkpt>
      <trkpt lat="51.488957" lon="-0.661284">
        <ele>21.667676</ele>
        <time>2024-07-13T13:45:09.000Z</time>
      </trkpt>
      <trkpt lat="51.488956" lon="-0.661286">
        <ele>21.667673</ele>
        <time>2024-07-13T13:45:09.000Z</time>
      </trkpt>
      <trkpt lat="51.488699" lon="-0.660435">
        <ele>21.624834</ele>
        <time>2024-07-13T13:45:16.000Z</time>
      </trkpt>
      <trkpt lat="51.488653" lon="-0.660027">
        <ele>21.606146</ele>
        <time>2024-07-13T13:45:19.000Z</time>
      </trkpt>
      <trkpt lat="51.488637" lon="-0.659838">
        <ele>21.597539</ele>
        <time>2024-07-13T13:45:20.000Z</time>
      </trkpt>
      <trkpt lat="51.488396" lon="-0.658922">
        <ele>21.563076</ele>
        <time>2024-07-13T13:45:27.000Z</time>
      </trkpt>
      <trkpt lat="51.488374" lon="-0.658347">
        <ele>21.569991</ele>
        <time>2024-07-13T13:45:31.000Z</time>
      </trkpt>
      <trkpt lat="51.488488" lon="-0.658012">
        <ele>21.574763</ele>
        <time>2024-07-13T13:45:34.000Z</time>
      </trkpt>
      <trkpt lat="51.48852" lon="-0.657665">
        <ele>21.579046</ele>
        <time>2024-07-13T13:45:36.000Z</time>
      </trkpt>
      <trkpt lat="51.488476" lon="-0.657479">
        <ele>21.581523</ele>
        <time>2024-07-13T13:45:37.000Z</time>
      </trkpt>
      <trkpt lat="51.488039" lon="-0.656666">
        <ele>21.594776</ele>
        <time>2024-07-13T13:45:44.000Z</time>
      </trkpt>
      <trkpt lat="51.487856" lon="-0.655695">
        <ele>21.551688</ele>
        <time>2024-07-13T13:45:51.000Z</time>
      </trkpt>
      <trkpt lat="51.487478" lon="-0.65449">
        <ele>21.485493</ele>
        <time>2024-07-13T13:46:00.000Z</time>
      </trkpt>
      <trkpt lat="51.487264" lon="-0.653523">
        <ele>21.453812</ele>
        <time>2024-07-13T13:46:07.000Z</time>
      </trkpt>
      <trkpt lat="51.487223" lon="-0.653334">
        <ele>21.4476339253</ele>
        <time>2024-07-13T13:46:08.000Z</time>
      </trkpt>
      <trkpt lat="51.487121" lon="-0.653251">
        <ele>21.4419654039</ele>
        <time>2024-07-13T13:46:09.000Z</time>
      </trkpt>
      <trkpt lat="51.486923" lon="-0.653031">
        <ele>21.4300296131</ele>
        <time>2024-07-13T13:46:12.000Z</time>
      </trkpt>
      <trkpt lat="51.48685" lon="-0.652848">
        <ele>21.4233208699</ele>
        <time>2024-07-13T13:46:14.000Z</time>
      </trkpt>
      <trkpt lat="51.486799" lon="-0.652352">
        <ele>21.4078025538</ele>
        <time>2024-07-13T13:46:17.000Z</time>
      </trkpt>
      <trkpt lat="51.486883" lon="-0.651936">
        <ele>21.394302802</ele>
        <time>2024-07-13T13:46:20.000Z</time>
      </trkpt>
      <trkpt lat="51.486945" lon="-0.651674">
        <ele>21.3856508349</ele>
        <time>2024-07-13T13:46:22.000Z</time>
      </trkpt>
      <trkpt lat="51.48701" lon="-0.651762">
        <ele>21.3814363307</ele>
        <time>2024-07-13T13:46:23.000Z</time>
      </trkpt>
      <trkpt lat="51.487206" lon="-0.651884">
        <ele>21.3710156898</ele>
        <time>2024-07-13T13:46:25.000Z</time>
      </trkpt>
      <trkpt lat="51.487211" lon="-0.651876">
        <ele>21.3706658022</ele>
        <time>2024-07-13T13:46:25.000Z</time>
      </trkpt>
    </trkseg>
  </trk>
</gpx>

<!--
Performance optimized by W3 Total Cache. Learn more: https://www.boldgrid.com/w3-total-cache/?utm_source=w3tc&utm_medium=footer_comment&utm_campaign=free_plugin

Page Caching using Disk: Enhanced{w3tc_pagecache_reject_reason} 

Served from: www.aquabike.world @ 2026-05-10 00:24:39 by W3 Total Cache
-->